createdAt,value
2022-10-11T00:00:41.825Z,12.9
2022-10-11T00:01:42.007Z,12.9
2022-10-11T00:02:41.838Z,12.9
2022-10-11T00:03:41.838Z,12.9
2022-10-11T00:04:41.830Z,12.9
2022-10-11T00:05:41.858Z,12.9
2022-10-11T00:06:41.879Z,13
2022-10-11T00:07:41.830Z,13
2022-10-11T00:08:41.833Z,13
2022-10-11T00:09:41.833Z,13
2022-10-11T00:10:41.885Z,13
2022-10-11T00:11:41.876Z,13
2022-10-11T00:12:41.866Z,13
2022-10-11T00:13:41.864Z,13
2022-10-11T00:14:41.861Z,13
2022-10-11T00:15:41.881Z,13
2022-10-11T00:16:41.882Z,13
2022-10-11T00:17:41.895Z,13
2022-10-11T00:18:41.877Z,13
2022-10-11T00:19:41.880Z,13
2022-10-11T00:20:41.882Z,13
2022-10-11T00:21:41.920Z,13
2022-10-11T00:22:41.911Z,13
2022-10-11T00:23:41.888Z,13
2022-10-11T00:24:41.892Z,13.1
2022-10-11T00:25:41.885Z,13.1
2022-10-11T00:26:45.822Z,13.1
2022-10-11T00:27:41.872Z,13.1
2022-10-11T00:28:42.008Z,13.1
2022-10-11T00:29:41.893Z,13.1
2022-10-11T00:30:41.888Z,13.1
2022-10-11T00:31:41.903Z,13.1
2022-10-11T00:32:41.884Z,13.1
2022-10-11T00:33:41.932Z,13
2022-10-11T00:34:41.898Z,13
2022-10-11T00:35:41.921Z,13
2022-10-11T00:36:41.925Z,13
2022-10-11T00:37:41.899Z,13
2022-10-11T00:38:41.944Z,13
2022-10-11T00:39:41.924Z,13
2022-10-11T00:40:42.057Z,13
2022-10-11T00:41:41.955Z,13
2022-10-11T00:42:41.916Z,13
2022-10-11T00:43:41.923Z,13
2022-10-11T00:44:41.952Z,13
2022-10-11T00:45:41.939Z,13
2022-10-11T00:46:41.941Z,13
2022-10-11T00:47:41.921Z,13
2022-10-11T00:48:41.938Z,13
2022-10-11T00:49:41.952Z,13
2022-10-11T00:50:41.953Z,13.1
2022-10-11T00:51:41.950Z,13.1
2022-10-11T00:52:41.972Z,13.1
2022-10-11T00:53:41.944Z,13.1
2022-10-11T00:54:41.953Z,13.1
2022-10-11T00:55:41.954Z,13.1
2022-10-11T00:56:41.979Z,13.1
2022-10-11T00:57:41.945Z,13.1
2022-10-11T00:58:41.939Z,13.1
2022-10-11T00:59:41.948Z,13.1
2022-10-11T01:00:41.957Z,13.1
2022-10-11T01:01:42.065Z,13.1
2022-10-11T01:02:41.990Z,13.1
2022-10-11T01:03:41.983Z,13.1
2022-10-11T01:04:41.963Z,13.1
2022-10-11T01:05:41.991Z,13.1
2022-10-11T01:06:41.983Z,13.1
2022-10-11T01:07:41.989Z,13.1
2022-10-11T01:08:41.980Z,13.1
2022-10-11T01:09:41.985Z,13.1
2022-10-11T01:10:41.984Z,13.1
2022-10-11T01:11:41.991Z,13.1
2022-10-11T01:12:41.983Z,13.1
2022-10-11T01:13:41.980Z,13.1
2022-10-11T01:14:42.026Z,13.1
2022-10-11T01:15:42.019Z,13.1
2022-10-11T01:16:42.019Z,13.1
2022-10-11T01:17:42.029Z,13.1
2022-10-11T01:18:42.046Z,13.1
2022-10-11T01:19:42.012Z,13.1
2022-10-11T01:20:42.044Z,13.1
2022-10-11T01:21:42.066Z,13.1
2022-10-11T01:22:42.012Z,13.1
2022-10-11T01:23:41.999Z,13.1
2022-10-11T01:24:42.016Z,13.1
2022-10-11T01:25:42.029Z,13.1
2022-10-11T01:26:42.025Z,13.1
2022-10-11T01:27:42.002Z,13.1
2022-10-11T01:28:42.066Z,13.1
2022-10-11T01:29:42.049Z,13.1
2022-10-11T01:30:42.046Z,13.1
2022-10-11T01:31:42.053Z,13.1
2022-10-11T01:32:42.050Z,13.1
2022-10-11T01:33:42.033Z,13.1
2022-10-11T01:34:42.051Z,13.1
2022-10-11T01:35:42.044Z,13.1
2022-10-11T01:36:42.047Z,13.1
2022-10-11T01:37:42.062Z,13
2022-10-11T01:38:42.053Z,13
2022-10-11T01:39:42.250Z,13
2022-10-11T01:40:42.049Z,13
2022-10-11T01:41:42.067Z,13
2022-10-11T01:42:42.264Z,13
2022-10-11T01:43:42.063Z,13
2022-10-11T01:44:42.042Z,13
2022-10-11T01:45:42.057Z,13
2022-10-11T01:46:42.066Z,13
2022-10-11T01:47:42.084Z,13
2022-10-11T01:48:42.069Z,13
2022-10-11T01:49:42.099Z,13
2022-10-11T01:50:42.044Z,13
2022-10-11T01:51:46.444Z,13
2022-10-11T01:52:42.087Z,13
2022-10-11T01:53:42.090Z,13
2022-10-11T01:55:04.337Z,13
2022-10-11T01:55:42.064Z,13
2022-10-11T01:56:42.070Z,13
2022-10-11T01:57:42.058Z,13
2022-10-11T01:58:42.065Z,13.1
2022-10-11T01:59:42.083Z,13.1
2022-10-11T02:00:42.068Z,13.1
2022-10-11T02:01:42.164Z,13.1
2022-10-11T02:02:42.096Z,13.1
2022-10-11T02:03:42.072Z,13.1
2022-10-11T02:04:42.073Z,13.1
2022-10-11T02:05:42.070Z,13
2022-10-11T02:06:42.083Z,13
2022-10-11T02:07:42.077Z,13
2022-10-11T02:08:42.066Z,13
2022-10-11T02:09:42.230Z,13
2022-10-11T02:10:42.106Z,13
2022-10-11T02:11:42.107Z,13
2022-10-11T02:12:42.128Z,13
2022-10-11T02:13:42.119Z,13.1
2022-10-11T02:14:42.122Z,13.1
2022-10-11T02:15:42.092Z,13.1
2022-10-11T02:16:42.112Z,13.1
2022-10-11T02:17:42.354Z,13
2022-10-11T02:18:42.113Z,13
2022-10-11T02:19:42.116Z,13
2022-10-11T02:20:42.133Z,13
2022-10-11T02:21:42.146Z,13
2022-10-11T02:22:42.125Z,13
2022-10-11T02:23:42.136Z,13.1
2022-10-11T02:24:42.114Z,13.1
2022-10-11T02:25:42.149Z,13.1
2022-10-11T02:26:42.152Z,13.1
2022-10-11T02:27:42.137Z,13.1
2022-10-11T02:28:42.195Z,13.1
2022-10-11T02:29:42.171Z,13.1
2022-10-11T02:30:42.176Z,13.2
2022-10-11T02:31:42.159Z,13.2
2022-10-11T02:32:42.157Z,13.2
2022-10-11T02:33:42.175Z,13.2
2022-10-11T02:34:42.156Z,13.2
2022-10-11T02:35:42.161Z,13.2
2022-10-11T02:36:42.182Z,13.2
2022-10-11T02:37:42.167Z,13.2
2022-10-11T02:38:42.167Z,13.2
2022-10-11T02:39:42.184Z,13.2
2022-10-11T02:40:42.182Z,13.2
2022-10-11T02:41:42.220Z,13.1
2022-10-11T02:42:42.188Z,13.1
2022-10-11T02:43:42.194Z,13.1
2022-10-11T02:44:42.194Z,13.1
2022-10-11T02:45:42.185Z,13.1
2022-10-11T02:46:42.233Z,13.1
2022-10-11T02:47:42.196Z,13.1
2022-10-11T02:48:42.217Z,13.1
2022-10-11T02:49:42.193Z,13.1
2022-10-11T02:50:42.205Z,13.1
2022-10-11T02:51:42.215Z,13.1
2022-10-11T02:52:42.241Z,13.2
2022-10-11T02:53:42.301Z,13.2
2022-10-11T02:54:42.228Z,13.2
2022-10-11T02:55:42.234Z,13.2
2022-10-11T02:56:42.248Z,13.2
2022-10-11T02:57:42.242Z,13.2
2022-10-11T02:58:42.215Z,13.2
2022-10-11T02:59:42.215Z,13.2
2022-10-11T03:00:42.246Z,13.2
2022-10-11T03:01:42.279Z,13.2
2022-10-11T03:02:42.237Z,13.2
2022-10-11T03:03:42.227Z,13.2
2022-10-11T03:04:42.225Z,13.2
2022-10-11T03:05:42.244Z,13.2
2022-10-11T03:06:42.247Z,13.2
2022-10-11T03:07:42.248Z,13.2
2022-10-11T03:08:42.249Z,13.2
2022-10-11T03:09:42.234Z,13.2
2022-10-11T03:10:42.258Z,13.2
2022-10-11T03:11:42.247Z,13.1
2022-10-11T03:12:42.258Z,13.1
2022-10-11T03:13:42.281Z,13.1
2022-10-11T03:14:42.256Z,13.1
2022-10-11T03:15:42.291Z,13.1
2022-10-11T03:16:42.289Z,13.1
2022-10-11T03:17:42.298Z,13.1
2022-10-11T03:18:42.295Z,13.1
2022-10-11T03:19:42.489Z,13.1
2022-10-11T03:20:42.288Z,13.1
2022-10-11T03:21:42.293Z,13.1
2022-10-11T03:22:42.283Z,13.1
2022-10-11T03:23:42.280Z,13.1
2022-10-11T03:24:42.288Z,13
2022-10-11T03:25:42.365Z,13
2022-10-11T03:26:42.324Z,13
2022-10-11T03:27:42.325Z,13
2022-10-11T03:28:42.407Z,13
2022-10-11T03:29:42.348Z,13
2022-10-11T03:30:42.333Z,13
2022-10-11T03:31:42.355Z,13
2022-10-11T03:32:42.363Z,13
2022-10-11T03:33:42.356Z,13
2022-10-11T03:34:42.337Z,13
2022-10-11T03:35:42.338Z,13
2022-10-11T03:36:42.363Z,13.1
2022-10-11T03:37:42.341Z,13.1
2022-10-11T03:38:42.329Z,13.1
2022-10-11T03:39:42.346Z,13.1
2022-10-11T03:40:42.356Z,13.1
2022-10-11T03:41:42.389Z,13.1
2022-10-11T03:42:42.346Z,13.1
2022-10-11T03:43:42.355Z,13.1
2022-10-11T03:44:42.373Z,13.1
2022-10-11T03:45:42.397Z,13.1
2022-10-11T03:46:42.371Z,13.1
2022-10-11T03:47:42.357Z,13.1
2022-10-11T03:48:42.369Z,13.1
2022-10-11T03:49:43.711Z,13
2022-10-11T03:50:42.370Z,13
2022-10-11T03:51:42.373Z,13
2022-10-11T03:52:42.365Z,13
2022-10-11T03:53:42.395Z,13
2022-10-11T03:54:42.368Z,13
2022-10-11T03:55:42.397Z,12.9
2022-10-11T03:56:42.396Z,12.9
2022-10-11T03:57:42.382Z,12.9
2022-10-11T03:58:42.392Z,12.9
2022-10-11T03:59:42.385Z,12.9
2022-10-11T04:00:42.381Z,12.9
2022-10-11T04:01:42.467Z,12.9
2022-10-11T04:02:42.405Z,12.8
2022-10-11T04:03:42.457Z,12.8
2022-10-11T04:04:42.438Z,12.8
2022-10-11T04:05:42.429Z,12.8
2022-10-11T04:06:42.431Z,12.8
2022-10-11T04:07:42.423Z,12.8
2022-10-11T04:08:42.419Z,12.8
2022-10-11T04:09:42.429Z,12.8
2022-10-11T04:10:42.413Z,12.8
2022-10-11T04:11:42.436Z,12.8
2022-10-11T04:12:42.443Z,12.8
2022-10-11T04:13:42.442Z,12.8
2022-10-11T04:14:42.429Z,12.8
2022-10-11T04:15:42.444Z,12.7
2022-10-11T04:16:42.450Z,12.7
2022-10-11T04:17:42.466Z,12.7
2022-10-11T04:18:42.528Z,12.7
2022-10-11T04:19:42.452Z,12.7
2022-10-11T04:20:42.437Z,12.7
2022-10-11T04:21:42.492Z,12.7
2022-10-11T04:22:42.460Z,12.7
2022-10-11T04:23:42.444Z,12.6
2022-10-11T04:24:42.466Z,12.6
2022-10-11T04:25:42.459Z,12.6
2022-10-11T04:26:42.487Z,12.6
2022-10-11T04:27:42.471Z,12.6
2022-10-11T04:28:42.549Z,12.7
2022-10-11T04:29:42.483Z,12.7
2022-10-11T04:30:42.493Z,12.7
2022-10-11T04:31:42.523Z,12.7
2022-10-11T04:32:42.487Z,12.7
2022-10-11T04:33:42.524Z,12.7
2022-10-11T04:34:42.496Z,12.7
2022-10-11T04:35:42.506Z,12.7
2022-10-11T04:36:45.279Z,12.7
2022-10-11T04:37:42.489Z,12.7
2022-10-11T04:38:42.481Z,12.8
2022-10-11T04:39:42.516Z,12.8
2022-10-11T04:40:42.502Z,12.8
2022-10-11T04:41:42.505Z,12.8
2022-10-11T04:42:42.533Z,12.8
2022-10-11T04:43:42.496Z,12.8
2022-10-11T04:44:42.517Z,12.8
2022-10-11T04:45:42.511Z,12.8
2022-10-11T04:46:42.516Z,12.7
2022-10-11T04:47:42.517Z,12.7
2022-10-11T04:48:42.513Z,12.7
2022-10-11T04:49:42.577Z,12.7
2022-10-11T04:50:42.535Z,12.7
2022-10-11T04:51:42.549Z,12.7
2022-10-11T04:52:42.540Z,12.7
2022-10-11T04:53:42.559Z,12.7
2022-10-11T04:54:42.615Z,12.7
2022-10-11T04:55:42.542Z,12.7
2022-10-11T04:56:42.554Z,12.7
2022-10-11T04:57:42.546Z,12.6
2022-10-11T04:58:42.533Z,12.6
2022-10-11T04:59:45.472Z,12.6
2022-10-11T05:00:42.563Z,12.6
2022-10-11T05:01:42.580Z,12.6
2022-10-11T05:02:42.544Z,12.6
2022-10-11T05:03:42.558Z,12.6
2022-10-11T05:04:42.556Z,12.5
2022-10-11T05:05:42.588Z,12.5
2022-10-11T05:06:42.551Z,12.5
2022-10-11T05:07:42.571Z,12.5
2022-10-11T05:08:42.570Z,12.5
2022-10-11T05:09:42.573Z,12.5
2022-10-11T05:10:42.595Z,12.5
2022-10-11T05:11:42.730Z,12.5
2022-10-11T05:12:42.571Z,12.5
2022-10-11T05:13:42.570Z,12.5
2022-10-11T05:14:42.582Z,12.5
2022-10-11T05:15:42.615Z,12.5
2022-10-11T05:16:42.592Z,12.6
2022-10-11T05:17:42.600Z,12.6
2022-10-11T05:18:42.608Z,12.6
2022-10-11T05:19:42.602Z,12.6
2022-10-11T05:20:42.613Z,12.6
2022-10-11T05:21:42.623Z,12.6
2022-10-11T05:22:42.619Z,12.6
2022-10-11T05:23:42.604Z,12.6
2022-10-11T05:24:42.613Z,12.6
2022-10-11T05:25:42.623Z,12.6
2022-10-11T05:26:42.620Z,12.6
2022-10-11T05:27:42.623Z,12.6
2022-10-11T05:28:42.733Z,12.6
2022-10-11T05:29:42.657Z,12.5
2022-10-11T05:30:42.641Z,12.5
2022-10-11T05:31:42.622Z,12.5
2022-10-11T05:32:42.620Z,12.5
2022-10-11T05:33:42.626Z,12.5
2022-10-11T05:34:42.620Z,12.5
2022-10-11T05:35:42.628Z,12.5
2022-10-11T05:36:42.624Z,12.4
2022-10-11T05:37:42.643Z,12.4
2022-10-11T05:38:42.625Z,12.4
2022-10-11T05:39:42.630Z,12.4
2022-10-11T05:40:42.652Z,12.4
2022-10-11T05:41:42.656Z,12.4
2022-10-11T05:42:42.651Z,12.4
2022-10-11T05:43:42.639Z,12.3
2022-10-11T05:44:42.635Z,12.3
2022-10-11T05:45:42.670Z,12.3
2022-10-11T05:46:42.661Z,12.3
2022-10-11T05:47:42.645Z,12.3
2022-10-11T05:48:42.666Z,12.3
2022-10-11T05:49:42.643Z,12.3
2022-10-11T05:50:42.667Z,12.3
2022-10-11T05:51:42.666Z,12.3
2022-10-11T05:52:42.665Z,12.3
2022-10-11T05:53:42.689Z,12.3
2022-10-11T05:54:42.659Z,12.3
2022-10-11T05:55:42.680Z,12.3
2022-10-11T05:56:42.672Z,12.3
2022-10-11T05:57:42.671Z,12.3
2022-10-11T05:58:42.671Z,12.3
2022-10-11T05:59:42.669Z,12.3
2022-10-11T06:00:42.679Z,12.3
2022-10-11T06:01:42.765Z,12.3
2022-10-11T06:02:42.663Z,12.3
2022-10-11T06:03:42.689Z,12.3
2022-10-11T06:04:42.703Z,12.3
2022-10-11T06:05:42.697Z,12.3
2022-10-11T06:06:42.687Z,12.3
2022-10-11T06:07:42.675Z,12.3
2022-10-11T06:08:42.694Z,12.3
2022-10-11T06:09:42.712Z,12.3
2022-10-11T06:10:42.727Z,12.3
2022-10-11T06:11:42.704Z,12.3
2022-10-11T06:12:42.693Z,12.3
2022-10-11T06:13:42.717Z,12.3
2022-10-11T06:14:42.690Z,12.3
2022-10-11T06:15:42.712Z,12.3
2022-10-11T06:16:42.695Z,12.3
2022-10-11T06:17:42.715Z,12.3
2022-10-11T06:18:42.696Z,12.3
2022-10-11T06:19:42.702Z,12.3
2022-10-11T06:20:42.710Z,12.2
2022-10-11T06:21:42.689Z,12.2
2022-10-11T06:22:42.736Z,12.2
2022-10-11T06:23:42.737Z,12.2
2022-10-11T06:24:42.732Z,12.3
2022-10-11T06:25:42.740Z,12.3
2022-10-11T06:26:42.726Z,12.3
2022-10-11T06:27:42.735Z,12.4
2022-10-11T06:28:42.835Z,12.4
2022-10-11T06:29:42.757Z,12.4
2022-10-11T06:30:42.740Z,12.4
2022-10-11T06:31:42.744Z,12.4
2022-10-11T06:32:42.726Z,12.5
2022-10-11T06:33:42.712Z,12.5
2022-10-11T06:34:42.732Z,12.5
2022-10-11T06:35:42.730Z,12.5
2022-10-11T06:36:42.748Z,12.5
2022-10-11T06:37:42.722Z,12.5
2022-10-11T06:38:45.114Z,12.5
2022-10-11T06:39:42.733Z,12.5
2022-10-11T06:40:42.756Z,12.5
2022-10-11T06:41:42.767Z,12.5
2022-10-11T06:42:42.744Z,12.4
2022-10-11T06:43:42.761Z,12.4
2022-10-11T06:44:42.743Z,12.4
2022-10-11T06:45:42.753Z,12.4
2022-10-11T06:46:42.732Z,12.4
2022-10-11T06:47:42.737Z,12.4
2022-10-11T06:48:42.731Z,12.4
2022-10-11T06:49:42.730Z,12.4
2022-10-11T06:50:58.940Z,12.4
2022-10-11T06:51:42.735Z,12.3
2022-10-11T06:52:42.748Z,12.3
2022-10-11T06:53:42.763Z,12.3
2022-10-11T06:54:44.971Z,12.3
2022-10-11T06:55:42.840Z,12.3
2022-10-11T06:56:42.788Z,12.3
2022-10-11T06:57:42.801Z,12.4
2022-10-11T06:58:42.764Z,12.4
2022-10-11T06:59:42.785Z,12.4
2022-10-11T07:00:42.861Z,12.4
2022-10-11T07:01:42.807Z,12.4
2022-10-11T07:02:42.789Z,12.4
2022-10-11T07:03:42.804Z,12.4
2022-10-11T07:04:42.820Z,12.4
2022-10-11T07:05:42.823Z,12.4
2022-10-11T07:06:42.794Z,12.4
2022-10-11T07:07:42.797Z,12.4
2022-10-11T07:08:42.817Z,12.4
2022-10-11T07:09:42.806Z,12.4
2022-10-11T07:10:42.827Z,12.4
2022-10-11T07:11:42.806Z,12.4
2022-10-11T07:12:42.829Z,12.4
2022-10-11T07:13:42.835Z,12.5
2022-10-11T07:14:42.810Z,12.5
2022-10-11T07:15:42.816Z,12.5
2022-10-11T07:16:42.809Z,12.5
2022-10-11T07:17:42.797Z,12.5
2022-10-11T07:18:42.895Z,12.5
2022-10-11T07:19:42.839Z,12.5
2022-10-11T07:20:42.842Z,12.5
2022-10-11T07:21:42.831Z,12.5
2022-10-11T07:22:42.850Z,12.5
2022-10-11T07:23:42.837Z,12.5
2022-10-11T07:24:42.846Z,12.5
2022-10-11T07:25:42.842Z,12.5
2022-10-11T07:26:42.867Z,12.5
2022-10-11T07:27:42.824Z,12.5
2022-10-11T07:28:42.899Z,12.4
2022-10-11T07:29:42.866Z,12.4
2022-10-11T07:30:42.854Z,12.4
2022-10-11T07:31:42.862Z,12.4
2022-10-11T07:32:42.886Z,12.4
2022-10-11T07:33:42.855Z,12.4
2022-10-11T07:34:42.893Z,12.4
2022-10-11T07:35:47.443Z,12.4
2022-10-11T07:36:42.853Z,12.3
2022-10-11T07:37:42.861Z,12.3
2022-10-11T07:38:42.885Z,12.3
2022-10-11T07:39:42.888Z,12.3
2022-10-11T07:40:42.858Z,12.3
2022-10-11T07:41:45.768Z,12.3
2022-10-11T07:42:42.866Z,12.3
2022-10-11T07:43:42.869Z,12.2
2022-10-11T07:44:42.864Z,12.2
2022-10-11T07:45:42.908Z,12.2
2022-10-11T07:46:42.875Z,12.2
2022-10-11T07:47:42.859Z,12.2
2022-10-11T07:48:42.869Z,12.2
2022-10-11T07:49:42.896Z,12.1
2022-10-11T07:50:42.885Z,12.1
2022-10-11T07:51:42.870Z,12.1
2022-10-11T07:52:42.860Z,12.1
2022-10-11T07:53:42.889Z,12.1
2022-10-11T07:54:42.905Z,12.1
2022-10-11T07:55:42.904Z,12.1
2022-10-11T07:56:42.882Z,12.1
2022-10-11T07:57:42.883Z,12.1
2022-10-11T07:58:42.881Z,12.1
2022-10-11T07:59:45.676Z,12
2022-10-11T08:00:42.914Z,12
2022-10-11T08:01:43.002Z,12.1
2022-10-11T08:02:42.909Z,12.1
2022-10-11T08:03:42.914Z,12.1
2022-10-11T08:04:42.930Z,12.1
2022-10-11T08:05:42.912Z,12.1
2022-10-11T08:06:42.928Z,12.1
2022-10-11T08:07:42.929Z,12.1
2022-10-11T08:08:42.922Z,12.1
2022-10-11T08:09:42.939Z,12.2
2022-10-11T08:10:42.926Z,12.2
2022-10-11T08:11:42.933Z,12.2
2022-10-11T08:12:42.927Z,12.2
2022-10-11T08:13:42.937Z,12.2
2022-10-11T08:14:42.960Z,12.2
2022-10-11T08:15:42.940Z,12.2
2022-10-11T08:16:42.929Z,12.2
2022-10-11T08:17:42.951Z,12.2
2022-10-11T08:18:42.934Z,12.2
2022-10-11T08:19:42.979Z,12.2
2022-10-11T08:20:42.927Z,12.2
2022-10-11T08:21:42.966Z,12.1
2022-10-11T08:22:42.958Z,12.1
2022-10-11T08:23:42.934Z,12.1
2022-10-11T08:24:42.956Z,12.1
2022-10-11T08:25:42.926Z,12.1
2022-10-11T08:26:42.934Z,12.1
2022-10-11T08:27:42.934Z,12.1
2022-10-11T08:28:43.035Z,12.1
2022-10-11T08:29:42.971Z,12.1
2022-10-11T08:30:42.957Z,12.1
2022-10-11T08:31:42.952Z,12.1
2022-10-11T08:32:42.947Z,12.2
2022-10-11T08:33:43.080Z,12.2
2022-10-11T08:34:42.995Z,12.2
2022-10-11T08:35:42.968Z,12.2
2022-10-11T08:36:42.956Z,12.2
2022-10-11T08:37:43.047Z,12.3
2022-10-11T08:38:42.964Z,12.3
2022-10-11T08:39:43.008Z,12.3
2022-10-11T08:40:42.957Z,12.3
2022-10-11T08:41:43.008Z,12.3
2022-10-11T08:42:42.996Z,12.3
2022-10-11T08:43:42.997Z,12.3
2022-10-11T08:45:42.984Z,12.3
2022-10-11T08:46:43.003Z,12.3
2022-10-11T08:47:43.013Z,12.3
2022-10-11T08:48:42.997Z,12.3
2022-10-11T08:49:43.027Z,12.3
2022-10-11T08:50:43.029Z,12.3
2022-10-11T08:51:43.038Z,12.4
2022-10-11T08:52:43.078Z,12.4
2022-10-11T08:53:43.069Z,12.4
2022-10-11T08:54:43.086Z,12.4
2022-10-11T08:55:43.053Z,12.5
2022-10-11T08:56:43.063Z,12.5
2022-10-11T08:57:43.066Z,12.5
2022-10-11T08:58:43.068Z,12.5
2022-10-11T08:59:43.076Z,12.5
2022-10-11T09:00:43.094Z,12.5
2022-10-11T09:01:43.133Z,12.6
2022-10-11T09:03:06.707Z,12.6
2022-10-11T09:03:43.083Z,12.6
2022-10-11T09:04:43.088Z,12.6
2022-10-11T09:05:43.102Z,12.6
2022-10-11T09:06:43.070Z,12.6
2022-10-11T09:07:43.072Z,12.6
2022-10-11T09:08:43.074Z,12.6
2022-10-11T09:09:43.072Z,12.6
2022-10-11T09:10:43.074Z,12.7
2022-10-11T09:11:43.063Z,12.7
2022-10-11T09:12:43.058Z,12.7
2022-10-11T09:13:43.106Z,12.8
2022-10-11T09:14:43.100Z,12.8
2022-10-11T09:15:43.094Z,12.9
2022-10-11T09:16:43.086Z,12.9
2022-10-11T09:17:43.090Z,12.9
2022-10-11T09:18:43.105Z,12.9
2022-10-11T09:19:43.096Z,13
2022-10-11T09:20:43.090Z,13
2022-10-11T09:21:43.109Z,13
2022-10-11T09:22:43.078Z,13
2022-10-11T09:23:43.079Z,12.9
2022-10-11T09:24:43.101Z,12.9
2022-10-11T09:25:43.113Z,12.9
2022-10-11T09:26:43.097Z,12.9
2022-10-11T09:28:01.608Z,12.9
2022-10-11T09:28:43.167Z,12.9
2022-10-11T09:29:43.113Z,12.8
2022-10-11T09:30:43.125Z,12.8
2022-10-11T09:31:43.146Z,12.8
2022-10-11T09:32:43.136Z,12.8
2022-10-11T09:33:43.156Z,12.7
2022-10-11T09:34:43.151Z,12.7
2022-10-11T09:35:43.134Z,12.7
2022-10-11T09:36:43.146Z,12.7
2022-10-11T09:37:43.180Z,12.7
2022-10-11T09:38:43.146Z,12.7
2022-10-11T09:39:43.157Z,12.7
2022-10-11T09:40:43.172Z,12.6
2022-10-11T09:41:43.152Z,12.6
2022-10-11T09:42:43.171Z,12.6
2022-10-11T09:43:43.175Z,12.6
2022-10-11T09:44:43.173Z,12.6
2022-10-11T09:45:46.951Z,12.5
2022-10-11T09:46:43.146Z,12.5
2022-10-11T09:47:43.166Z,12.5
2022-10-11T09:48:43.193Z,12.5
2022-10-11T09:49:43.175Z,12.5
2022-10-11T09:50:43.177Z,12.5
2022-10-11T09:51:43.197Z,12.5
2022-10-11T09:52:43.183Z,12.5
2022-10-11T09:53:43.200Z,12.5
2022-10-11T09:54:43.241Z,12.5
2022-10-11T09:55:43.202Z,12.5
2022-10-11T09:56:43.210Z,12.5
2022-10-11T09:57:43.192Z,12.6
2022-10-11T09:58:43.194Z,12.6
2022-10-11T09:59:43.214Z,12.6
2022-10-11T10:00:43.215Z,12.6
2022-10-11T10:01:43.243Z,12.7
2022-10-11T10:02:43.307Z,12.7
2022-10-11T10:03:43.205Z,12.7
2022-10-11T10:04:43.233Z,12.8
2022-10-11T10:05:43.218Z,12.8
2022-10-11T10:06:43.240Z,12.8
2022-10-11T10:07:43.230Z,12.8
2022-10-11T10:08:43.235Z,12.9
2022-10-11T10:09:43.316Z,12.9
2022-10-11T10:10:43.244Z,12.9
2022-10-11T10:11:43.230Z,12.9
2022-10-11T10:12:43.223Z,12.9
2022-10-11T10:13:43.245Z,12.9
2022-10-11T10:14:43.319Z,12.9
2022-10-11T10:15:43.232Z,13
2022-10-11T10:16:43.223Z,13
2022-10-11T10:17:43.246Z,13
2022-10-11T10:18:43.220Z,13
2022-10-11T10:19:45.138Z,13
2022-10-11T10:20:43.253Z,13.1
2022-10-11T10:21:43.241Z,13.1
2022-10-11T10:22:43.239Z,13.1
2022-10-11T10:23:43.236Z,13.1
2022-10-11T10:24:43.251Z,13.2
2022-10-11T10:25:43.829Z,13.2
2022-10-11T10:26:43.259Z,13.2
2022-10-11T10:27:43.256Z,13.2
2022-10-11T10:28:43.304Z,13.3
2022-10-11T10:29:43.282Z,13.3
2022-10-11T10:30:43.267Z,13.3
2022-10-11T10:32:09.098Z,13.4
2022-10-11T10:32:47.616Z,13.4
2022-10-11T10:33:43.284Z,13.4
2022-10-11T10:34:43.290Z,13.5
2022-10-11T10:35:43.270Z,13.5
2022-10-11T10:36:43.254Z,13.5
2022-10-11T10:37:43.267Z,13.6
2022-10-11T10:38:43.278Z,13.6
2022-10-11T10:39:43.291Z,13.7
2022-10-11T10:40:43.282Z,13.7
2022-10-11T10:41:43.343Z,13.7
2022-10-11T10:42:43.308Z,13.7
2022-10-11T10:43:43.314Z,13.7
2022-10-11T10:44:43.324Z,13.7
2022-10-11T10:45:43.326Z,13.7
2022-10-11T10:46:44.762Z,13.7
2022-10-11T10:47:43.313Z,13.7
2022-10-11T10:49:19.028Z,13.7
2022-10-11T10:49:58.806Z,13.7
2022-10-11T10:50:43.324Z,13.8
2022-10-11T10:51:43.322Z,13.8
2022-10-11T10:52:43.314Z,13.8
2022-10-11T10:53:43.328Z,13.8
2022-10-11T10:54:43.366Z,13.8
2022-10-11T10:55:43.330Z,13.8
2022-10-11T10:56:43.326Z,13.8
2022-10-11T10:57:43.341Z,13.9
2022-10-11T10:58:43.342Z,13.9
2022-10-11T10:59:43.350Z,13.9
2022-10-11T11:00:43.320Z,14
2022-10-11T11:01:43.537Z,14
2022-10-11T11:02:43.404Z,14
2022-10-11T11:03:43.326Z,14.1
2022-10-11T11:04:43.344Z,14.1
2022-10-11T11:05:43.340Z,14.1
2022-10-11T11:06:43.368Z,14.2
2022-10-11T11:07:43.373Z,14.2
2022-10-11T11:08:43.377Z,14.2
2022-10-11T11:09:43.394Z,14.3
2022-10-11T11:10:43.356Z,14.3
2022-10-11T11:11:43.380Z,14.4
2022-10-11T11:12:43.366Z,14.4
2022-10-11T11:13:43.375Z,14.4
2022-10-11T11:14:43.405Z,14.4
2022-10-11T11:15:43.382Z,14.4
2022-10-11T11:16:43.419Z,14.5
2022-10-11T11:17:43.398Z,14.5
2022-10-11T11:18:43.403Z,14.5
2022-10-11T11:19:43.403Z,14.6
2022-10-11T11:20:43.376Z,14.6
2022-10-11T11:21:43.379Z,14.6
2022-10-11T11:22:43.391Z,14.6
2022-10-11T11:23:43.380Z,14.7
2022-10-11T11:24:43.389Z,14.7
2022-10-11T11:25:44.962Z,14.7
2022-10-11T11:26:44.534Z,14.8
2022-10-11T11:27:43.383Z,14.8
2022-10-11T11:28:43.434Z,14.9
2022-10-11T11:29:43.421Z,14.9
2022-10-11T11:30:43.390Z,14.9
2022-10-11T11:31:43.389Z,14.9
2022-10-11T11:32:45.664Z,14.9
2022-10-11T11:33:47.905Z,14.9
2022-10-11T11:34:43.435Z,14.9
2022-10-11T11:35:43.449Z,14.9
2022-10-11T11:36:43.422Z,14.9
2022-10-11T11:37:43.423Z,15
2022-10-11T11:38:43.429Z,15
2022-10-11T11:39:43.440Z,15
2022-10-11T11:40:43.427Z,15
2022-10-11T11:41:43.412Z,15
2022-10-11T11:42:43.431Z,15
2022-10-11T11:43:43.438Z,15
2022-10-11T11:44:43.433Z,15
2022-10-11T11:45:43.458Z,15
2022-10-11T11:46:43.446Z,15
2022-10-11T11:47:43.463Z,15
2022-10-11T11:48:43.459Z,15
2022-10-11T11:50:43.467Z,15
2022-10-11T11:51:43.449Z,15
2022-10-11T11:52:43.461Z,15
2022-10-11T11:53:43.471Z,14.9
2022-10-11T11:54:43.482Z,14.9
2022-10-11T11:55:43.464Z,14.9
2022-10-11T11:56:43.477Z,14.8
2022-10-11T11:57:43.477Z,14.8
2022-10-11T11:58:43.478Z,14.8
2022-10-11T11:59:43.484Z,14.8
2022-10-11T12:00:43.489Z,14.8
2022-10-11T12:01:43.541Z,14.8
2022-10-11T12:02:43.514Z,14.7
2022-10-11T12:03:43.521Z,14.8
2022-10-11T12:04:43.517Z,14.8
2022-10-11T12:05:43.505Z,14.7
2022-10-11T12:06:58.085Z,14.7
2022-10-11T12:07:43.510Z,14.7
2022-10-11T12:08:43.507Z,14.7
2022-10-11T12:09:43.533Z,14.7
2022-10-11T12:10:43.508Z,14.7
2022-10-11T12:11:43.512Z,14.7
2022-10-11T12:12:43.517Z,14.7
2022-10-11T12:13:43.507Z,14.7
2022-10-11T12:14:43.519Z,14.7
2022-10-11T12:15:43.518Z,14.8
2022-10-11T12:16:43.523Z,14.8
2022-10-11T12:17:43.541Z,14.7
2022-10-11T12:18:43.545Z,14.7
2022-10-11T12:19:43.541Z,14.8
2022-10-11T12:20:43.526Z,14.8
2022-10-11T12:21:43.532Z,14.9
2022-10-11T12:22:43.550Z,14.9
2022-10-11T12:23:43.754Z,14.9
2022-10-11T12:24:43.552Z,15
2022-10-11T12:25:43.535Z,15
2022-10-11T12:26:43.553Z,15.1
2022-10-11T12:27:43.542Z,15.1
2022-10-11T12:28:43.720Z,15.2
2022-10-11T12:29:43.595Z,15.3
2022-10-11T12:30:43.577Z,15.3
2022-10-11T12:31:46.064Z,15.4
2022-10-11T12:32:43.579Z,15.4
2022-10-11T12:33:43.599Z,15.4
2022-10-11T12:34:43.596Z,15.4
2022-10-11T12:35:43.586Z,15.4
2022-10-11T12:36:43.583Z,15.4
2022-10-11T12:37:43.567Z,15.4
2022-10-11T12:38:43.597Z,15.3
2022-10-11T12:39:43.596Z,15.3
2022-10-11T12:40:43.568Z,15.3
2022-10-11T12:41:43.612Z,15.2
2022-10-11T12:42:43.622Z,15.2
2022-10-11T12:43:43.593Z,15.2
2022-10-11T12:44:43.629Z,15.2
2022-10-11T12:45:43.597Z,15.2
2022-10-11T12:46:43.610Z,15.2
2022-10-11T12:47:43.602Z,15.2
2022-10-11T12:48:43.602Z,15.2
2022-10-11T12:49:43.624Z,15.2
2022-10-11T12:50:43.601Z,15.2
2022-10-11T12:51:43.612Z,15.2
2022-10-11T12:52:43.610Z,15.2
2022-10-11T12:53:43.631Z,15.2
2022-10-11T12:54:43.604Z,15.2
2022-10-11T12:55:43.629Z,15.3
2022-10-11T12:56:43.612Z,15.2
2022-10-11T12:57:46.253Z,15.2
2022-10-11T12:58:43.626Z,15.2
2022-10-11T12:59:43.636Z,15.3
2022-10-11T13:00:43.651Z,15.3
2022-10-11T13:01:43.698Z,15.3
2022-10-11T13:02:43.674Z,15.3
2022-10-11T13:03:43.655Z,15.4
2022-10-11T13:04:43.679Z,15.4
2022-10-11T13:05:45.110Z,15.4
2022-10-11T13:06:43.660Z,15.5
2022-10-11T13:07:43.665Z,15.5
2022-10-11T13:08:43.675Z,15.5
2022-10-11T13:09:48.194Z,15.6
2022-10-11T13:10:43.691Z,15.7
2022-10-11T13:11:43.668Z,15.7
2022-10-11T13:12:43.666Z,15.7
2022-10-11T13:13:43.686Z,15.7
2022-10-11T13:14:43.671Z,15.7
2022-10-11T13:15:43.683Z,15.8
2022-10-11T13:16:43.712Z,15.8
2022-10-11T13:17:43.684Z,15.8
2022-10-11T13:18:43.682Z,15.9
2022-10-11T13:19:43.706Z,15.9
2022-10-11T13:20:43.685Z,15.9
2022-10-11T13:21:43.712Z,16
2022-10-11T13:22:43.694Z,16
2022-10-11T13:23:43.682Z,16
2022-10-11T13:24:43.703Z,16
2022-10-11T13:25:43.740Z,15.9
2022-10-11T13:26:43.707Z,15.9
2022-10-11T13:27:43.709Z,15.9
2022-10-11T13:28:43.750Z,15.9